Uniopolis, Ohio
Current Conditions -  °F | °C
As of 11:53 AM on Saturday 22 Nov 2014 (Local Time) from KAOH Reporting Station
Overcast Overcast  
Wind Chill: 37°   Ceiling: 4600
Heat Index: 45°   Visibility: 10mi
Dew Point: 37°   Wind: 18mph
Humidity: 74%   Direction: 210°SSW
Pressure: 30.11"   Gusts: 29mph
Location:  40.6°N, 84.09°W
Report Text: KAOH 221653Z AUTO 21016G25KT 10SM OVC046 07/03 A3011 RMK AO2 PK WND 21029/1616 SLP206 T00720028
Loading
Personal Weather Stations






























Interactive Weather Map New forecast layout! Learn more

10-Day Weather Forecast

Advertisements
Track Severe Weather on mobile